MMCL/CUL METAR and TAF weather

Enter ICAO airport designator
Station Type Date Time Source
MMCL METAR 2019/04/19 09:44 UTC NOAA

MMCL 190944Z 00000KT 10SM SCT250 19/18 A2979 RMK 8/004


Station Type Date Time Source
MMCL Decoded METAR 2019/04/19 09:44 UTC NOAA

Culiacan, Sin., Mexico (MMCL) 24-49N 107-24W
Apr 19, 2019 - 05:44 AM EDT / 2019.04.19 0944 UTC
Wind: Calm:0
Visibility: 10 mile(s):0
Sky conditions: partly cloudy
Temperature: 66 F (19 C)
Dew Point: 64 F (18 C)
Relative Humidity: 93%
Pressure (altimeter): 29.79 in. Hg (1008 hPa)
ob: MMCL 190944Z 00000KT 10SM SCT250 19/18 A2979 RMK 8/004
cycle: 9

Station Type Date Time Source
MMCL TAF 2019/04/19 06:48 UTC NOAA

TAF TAF MMCL 190446Z 1906/2006 00000KT P6SM BKN250
FM191800 28010KT P6SM BKN250
FM200400 28008KT P6SM BKN250

Example: see airport list